sensor_id;sensor_type;location;lat;lon;timestamp;pressure;altitude;pressure_sealevel;temperature;humidity
50732;BME280;36700;50.488;2.544;2023-07-13T00:01:53;101190.44;;;19.95;57.21
50732;BME280;36700;50.488;2.544;2023-07-13T00:04:21;101192.31;;;19.95;57.13
50732;BME280;36700;50.488;2.544;2023-07-13T00:06:48;101183.31;;;19.94;57.47
50732;BME280;36700;50.488;2.544;2023-07-13T00:09:16;101185.47;;;19.92;57.37
50732;BME280;36700;50.488;2.544;2023-07-13T00:11:44;101189.03;;;19.92;57.60
50732;BME280;36700;50.488;2.544;2023-07-13T00:14:11;101192.84;;;19.91;57.31
50732;BME280;36700;50.488;2.544;2023-07-13T00:16:39;101189.03;;;19.92;57.37
50732;BME280;36700;50.488;2.544;2023-07-13T00:19:10;101192.84;;;19.91;57.72
50732;BME280;36700;50.488;2.544;2023-07-13T00:21:38;101183.56;;;19.92;57.23
50732;BME280;36700;50.488;2.544;2023-07-13T00:24:05;101187.38;;;19.91;57.48
50732;BME280;36700;50.488;2.544;2023-07-13T00:26:32;101191.19;;;19.90;57.23
50732;BME280;36700;50.488;2.544;2023-07-13T00:28:58;101185.72;;;19.90;57.20
50732;BME280;36700;50.488;2.544;2023-07-13T00:31:25;101185.72;;;19.90;57.16
50732;BME280;36700;50.488;2.544;2023-07-13T00:33:51;101184.91;;;19.90;57.62
50732;BME280;36700;50.488;2.544;2023-07-13T00:36:17;101194.16;;;19.89;57.51
50732;BME280;36700;50.488;2.544;2023-07-13T00:38:43;101187.63;;;19.90;57.37
50732;BME280;36700;50.488;2.544;2023-07-13T00:41:09;101189.50;;;19.89;57.25
50732;BME280;36700;50.488;2.544;2023-07-13T00:43:35;101197.69;;;19.89;57.78
50732;BME280;36700;50.488;2.544;2023-07-13T00:48:32;101201.50;;;19.88;57.31
50732;BME280;36700;50.488;2.544;2023-07-13T00:51:00;101189.78;;;19.88;57.28
50732;BME280;36700;50.488;2.544;2023-07-13T00:53:29;101200.72;;;19.88;57.89
50732;BME280;36700;50.488;2.544;2023-07-13T00:55:57;101181.59;;;19.88;57.73
50732;BME280;36700;50.488;2.544;2023-07-13T00:58:24;101190.88;;;19.87;57.51
50732;BME280;36700;50.488;2.544;2023-07-13T01:00:51;101192.53;;;19.88;57.30
50732;BME280;36700;50.488;2.544;2023-07-13T01:03:18;101187.31;;;19.86;57.72
50732;BME280;36700;50.488;2.544;2023-07-13T01:05:47;101182.69;;;19.87;57.66
50732;BME280;36700;50.488;2.544;2023-07-13T01:08:14;101182.94;;;19.85;57.67
50732;BME280;36700;50.488;2.544;2023-07-13T01:10:40;101191.13;;;19.85;57.65
50732;BME280;36700;50.488;2.544;2023-07-13T01:13:08;101209.13;;;19.86;57.68
50732;BME280;36700;50.488;2.544;2023-07-13T01:15:40;101198.47;;;19.85;57.66
50732;BME280;36700;50.488;2.544;2023-07-13T01:18:32;101216.50;;;19.86;57.91
50732;BME280;36700;50.488;2.544;2023-07-13T01:20:59;101218.41;;;19.85;57.42
50732;BME280;36700;50.488;2.544;2023-07-13T01:23:26;101214.84;;;19.85;57.41
50732;BME280;36700;50.488;2.544;2023-07-13T01:25:54;101195.97;;;19.83;57.77
50732;BME280;36700;50.488;2.544;2023-07-13T01:28:21;101205.00;;;19.84;57.39
50732;BME280;36700;50.488;2.544;2023-07-13T01:30:47;101202.28;;;19.84;57.37
50732;BME280;36700;50.488;2.544;2023-07-13T01:33:16;101196.81;;;19.84;57.72
50732;BME280;36700;50.488;2.544;2023-07-13T01:35:43;101198.72;;;19.83;57.77
50732;BME280;36700;50.488;2.544;2023-07-13T01:38:10;101195.97;;;19.83;57.60
50732;BME280;36700;50.488;2.544;2023-07-13T01:40:37;101193.25;;;19.83;57.76
50732;BME280;36700;50.488;2.544;2023-07-13T01:43:03;101209.63;;;19.83;57.65
50732;BME280;36700;50.488;2.544;2023-07-13T01:45:29;101200.88;;;19.81;57.76
50732;BME280;36700;50.488;2.544;2023-07-13T01:47:55;101208.81;;;19.83;57.80
50732;BME280;36700;50.488;2.544;2023-07-13T01:50:21;101204.69;;;19.80;57.39
50732;BME280;36700;50.488;2.544;2023-07-13T01:52:47;101201.72;;;19.82;57.50
50732;BME280;36700;50.488;2.544;2023-07-13T01:55:13;101203.84;;;19.80;58.08
50732;BME280;36700;50.488;2.544;2023-07-13T01:57:39;101215.59;;;19.80;58.03
50732;BME280;36700;50.488;2.544;2023-07-13T02:00:06;101209.31;;;19.80;57.57
50732;BME280;36700;50.488;2.544;2023-07-13T02:02:33;101209.31;;;19.80;57.49
50732;BME280;36700;50.488;2.544;2023-07-13T02:04:58;101209.31;;;19.80;57.73
50732;BME280;36700;50.488;2.544;2023-07-13T02:07:24;101205.78;;;19.79;57.61
50732;BME280;36700;50.488;2.544;2023-07-13T02:09:50;101211.22;;;19.79;57.87
50732;BME280;36700;50.488;2.544;2023-07-13T02:12:16;101219.41;;;19.79;57.95
50732;BME280;36700;50.488;2.544;2023-07-13T02:14:42;101223.22;;;19.78;58.02
50732;BME280;36700;50.488;2.544;2023-07-13T02:17:09;101220.50;;;19.78;57.53
50732;BME280;36700;50.488;2.544;2023-07-13T02:19:35;101224.03;;;19.78;57.63
50732;BME280;36700;50.488;2.544;2023-07-13T02:22:02;101225.13;;;19.77;57.49
50732;BME280;36700;50.488;2.544;2023-07-13T02:24:28;101216.09;;;19.77;57.77
50732;BME280;36700;50.488;2.544;2023-07-13T02:26:54;101216.94;;;19.77;57.99
50732;BME280;36700;50.488;2.544;2023-07-13T02:29:20;101218.81;;;19.77;57.59
50732;BME280;36700;50.488;2.544;2023-07-13T02:31:46;101210.06;;;19.75;57.96
50732;BME280;36700;50.488;2.544;2023-07-13T02:34:13;101218.00;;;19.76;57.90
50732;BME280;36700;50.488;2.544;2023-07-13T02:36:39;101216.38;;;19.75;57.71
50732;BME280;36700;50.488;2.544;2023-07-13T02:39:06;101217.16;;;19.76;57.67
50732;BME280;36700;50.488;2.544;2023-07-13T02:41:32;101220.19;;;19.74;58.15
50732;BME280;36700;50.488;2.544;2023-07-13T02:43:59;101223.72;;;19.75;57.73
50732;BME280;36700;50.488;2.544;2023-07-13T02:46:34;101215.53;;;19.75;57.84
50732;BME280;36700;50.488;2.544;2023-07-13T02:49:01;101216.59;;;19.74;58.04
50732;BME280;36700;50.488;2.544;2023-07-13T02:51:27;101219.34;;;19.74;57.78
50732;BME280;36700;50.488;2.544;2023-07-13T02:53:53;101215.78;;;19.73;58.00
50732;BME280;36700;50.488;2.544;2023-07-13T02:56:22;101221.81;;;19.75;58.02
50732;BME280;36700;50.488;2.544;2023-07-13T02:58:49;101212.00;;;19.74;57.77
50732;BME280;36700;50.488;2.544;2023-07-13T03:01:15;101211.41;;;19.72;58.01
50732;BME280;36700;50.488;2.544;2023-07-13T03:03:43;101218.50;;;19.73;57.83
50732;BME280;36700;50.488;2.544;2023-07-13T03:06:09;101213.03;;;19.73;58.19
50732;BME280;36700;50.488;2.544;2023-07-13T03:08:35;101217.69;;;19.73;58.34
50732;BME280;36700;50.488;2.544;2023-07-13T03:11:04;101218.50;;;19.73;58.16
50732;BME280;36700;50.488;2.544;2023-07-13T03:13:31;101210.31;;;19.73;58.09
50732;BME280;36700;50.488;2.544;2023-07-13T03:15:57;101216.84;;;19.72;58.31
50732;BME280;36700;50.488;2.544;2023-07-13T03:18:25;101217.94;;;19.71;58.06
50732;BME280;36700;50.488;2.544;2023-07-13T03:20:51;101219.56;;;19.72;58.22
50732;BME280;36700;50.488;2.544;2023-07-13T03:23:18;101228.84;;;19.71;58.36
50732;BME280;36700;50.488;2.544;2023-07-13T03:25:45;101217.09;;;19.71;57.92
50732;BME280;36700;50.488;2.544;2023-07-13T03:28:12;101217.94;;;19.71;58.38
50732;BME280;36700;50.488;2.544;2023-07-13T03:30:38;101219.81;;;19.71;58.23
50732;BME280;36700;50.488;2.544;2023-07-13T03:33:04;101227.19;;;19.70;58.16
50732;BME280;36700;50.488;2.544;2023-07-13T03:35:30;101220.91;;;19.70;58.37
50732;BME280;36700;50.488;2.544;2023-07-13T03:37:59;101235.38;;;19.70;57.98
50732;BME280;36700;50.488;2.544;2023-07-13T03:40:27;101234.53;;;19.70;58.01
50732;BME280;36700;50.488;2.544;2023-07-13T03:42:53;101221.75;;;19.70;58.00
50732;BME280;36700;50.488;2.544;2023-07-13T03:45:19;101231.81;;;19.70;58.39
50732;BME280;36700;50.488;2.544;2023-07-13T03:47:45;101233.75;;;19.69;58.20
50732;BME280;36700;50.488;2.544;2023-07-13T03:50:11;101234.53;;;19.70;58.46
50732;BME280;36700;50.488;2.544;2023-07-13T03:52:37;101232.91;;;19.69;58.18
50732;BME280;36700;50.488;2.544;2023-07-13T03:55:03;101232.09;;;19.68;58.57
50732;BME280;36700;50.488;2.544;2023-07-13T03:57:29;101229.38;;;19.68;58.15
50732;BME280;36700;50.488;2.544;2023-07-13T03:59:55;101236.47;;;19.69;58.23
50732;BME280;36700;50.488;2.544;2023-07-13T04:02:21;101237.53;;;19.68;58.51
50732;BME280;36700;50.488;2.544;2023-07-13T04:04:47;101243.81;;;19.69;58.07
50732;BME280;36700;50.488;2.544;2023-07-13T04:07:13;101239.44;;;19.68;58.64
50732;BME280;36700;50.488;2.544;2023-07-13T04:09:39;101248.47;;;19.68;58.42
50732;BME280;36700;50.488;2.544;2023-07-13T04:12:05;101244.91;;;19.68;58.55
50732;BME280;36700;50.488;2.544;2023-07-13T04:14:31;101250.34;;;19.68;58.38
50732;BME280;36700;50.488;2.544;2023-07-13T04:16:57;101251.19;;;19.68;58.48
50732;BME280;36700;50.488;2.544;2023-07-13T04:19:23;101249.28;;;19.69;58.30
50732;BME280;36700;50.488;2.544;2023-07-13T04:21:49;101252.25;;;19.67;58.68
50732;BME280;36700;50.488;2.544;2023-07-13T04:24:15;101252.25;;;19.67;58.59
50732;BME280;36700;50.488;2.544;2023-07-13T04:26:41;101254.97;;;19.67;58.38
50732;BME280;36700;50.488;2.544;2023-07-13T04:29:07;101253.31;;;19.66;58.26
50732;BME280;36700;50.488;2.544;2023-07-13T04:31:33;101257.69;;;19.67;58.75
50732;BME280;36700;50.488;2.544;2023-07-13T04:33:59;101265.88;;;19.67;58.70
50732;BME280;36700;50.488;2.544;2023-07-13T04:36:25;101265.88;;;19.67;58.44
50732;BME280;36700;50.488;2.544;2023-07-13T04:38:53;101270.53;;;19.67;58.57
50732;BME280;36700;50.488;2.544;2023-07-13T04:41:22;101277.06;;;19.66;58.28
50732;BME280;36700;50.488;2.544;2023-07-13T04:43:48;101281.44;;;19.67;58.68
50732;BME280;36700;50.488;2.544;2023-07-13T04:46:16;101273.50;;;19.65;58.32
50732;BME280;36700;50.488;2.544;2023-07-13T04:48:43;101273.50;;;19.65;58.34
50732;BME280;36700;50.488;2.544;2023-07-13T04:51:09;101282.53;;;19.66;58.62
50732;BME280;36700;50.488;2.544;2023-07-13T04:53:36;101283.56;;;19.64;58.72
50732;BME280;36700;50.488;2.544;2023-07-13T04:56:03;101284.66;;;19.63;58.40
50732;BME280;36700;50.488;2.544;2023-07-13T04:58:29;101291.75;;;19.64;58.70
50732;BME280;36700;50.488;2.544;2023-07-13T05:01:03;101290.09;;;19.63;58.75
50732;BME280;36700;50.488;2.544;2023-07-13T05:03:29;101290.94;;;19.64;58.74
50732;BME280;36700;50.488;2.544;2023-07-13T05:06:00;101286.31;;;19.64;58.30
50732;BME280;36700;50.488;2.544;2023-07-13T05:08:26;101287.38;;;19.63;58.78
50732;BME280;36700;50.488;2.544;2023-07-13T05:10:52;101290.94;;;19.64;58.77
50732;BME280;36700;50.488;2.544;2023-07-13T05:13:19;101304.59;;;19.64;58.79
50732;BME280;36700;50.488;2.544;2023-07-13T05:15:45;101299.13;;;19.64;58.42
50732;BME280;36700;50.488;2.544;2023-07-13T05:18:11;101292.03;;;19.63;58.48
50732;BME280;36700;50.488;2.544;2023-07-13T05:20:37;101300.22;;;19.63;58.74
50732;BME280;36700;50.488;2.544;2023-07-13T05:23:03;101296.41;;;19.64;58.72
50732;BME280;36700;50.488;2.544;2023-07-13T05:25:29;101302.94;;;19.63;58.73
50732;BME280;36700;50.488;2.544;2023-07-13T05:27:55;101300.78;;;19.65;58.45
50732;BME280;36700;50.488;2.544;2023-07-13T05:30:21;101310.03;;;19.64;58.48
50732;BME280;36700;50.488;2.544;2023-07-13T05:32:47;101300.78;;;19.65;58.55
50732;BME280;36700;50.488;2.544;2023-07-13T05:35:13;101302.44;;;19.66;58.69
50732;BME280;36700;50.488;2.544;2023-07-13T05:37:39;101302.44;;;19.66;58.32
50732;BME280;36700;50.488;2.544;2023-07-13T05:40:05;101295.09;;;19.67;58.41
50732;BME280;36700;50.488;2.544;2023-07-13T05:42:31;101304.06;;;19.67;58.29
50732;BME280;36700;50.488;2.544;2023-07-13T05:44:57;101301.63;;;19.66;58.65
50732;BME280;36700;50.488;2.544;2023-07-13T05:47:23;101303.28;;;19.67;58.40
50732;BME280;36700;50.488;2.544;2023-07-13T05:49:49;101308.72;;;19.67;58.31
50732;BME280;36700;50.488;2.544;2023-07-13T05:52:15;101302.19;;;19.68;58.37
50732;BME280;36700;50.488;2.544;2023-07-13T05:54:41;101302.19;;;19.68;58.78
50732;BME280;36700;50.488;2.544;2023-07-13T05:57:07;101304.91;;;19.68;58.72
50732;BME280;36700;50.488;2.544;2023-07-13T05:59:33;101298.63;;;19.67;58.39
50732;BME280;36700;50.488;2.544;2023-07-13T06:01:59;101305.75;;;19.68;58.51
50732;BME280;36700;50.488;2.544;2023-07-13T06:04:25;101301.34;;;19.67;58.81
50732;BME280;36700;50.488;2.544;2023-07-13T06:06:52;101306.81;;;19.67;58.70
50732;BME280;36700;50.488;2.544;2023-07-13T06:09:18;101311.22;;;19.68;58.40
50732;BME280;36700;50.488;2.544;2023-07-13T06:11:44;101315.00;;;19.67;59.06
50732;BME280;36700;50.488;2.544;2023-07-13T06:14:10;101313.34;;;19.66;58.62
50732;BME280;36700;50.488;2.544;2023-07-13T06:16:36;101320.44;;;19.67;58.45
50732;BME280;36700;50.488;2.544;2023-07-13T06:19:02;101323.19;;;19.67;58.89
50732;BME280;36700;50.488;2.544;2023-07-13T06:21:28;101331.34;;;19.67;58.77
50732;BME280;36700;50.488;2.544;2023-07-13T06:23:54;101336.00;;;19.67;58.56
50732;BME280;36700;50.488;2.544;2023-07-13T06:26:20;101330.56;;;19.67;58.90
50732;BME280;36700;50.488;2.544;2023-07-13T06:28:46;101332.19;;;19.68;58.89
50732;BME280;36700;50.488;2.544;2023-07-13T06:31:13;101330.56;;;19.67;58.65
50732;BME280;36700;50.488;2.544;2023-07-13T06:33:40;101337.91;;;19.66;58.88
50732;BME280;36700;50.488;2.544;2023-07-13T06:36:07;101337.66;;;19.68;58.62
50732;BME280;36700;50.488;2.544;2023-07-13T06:38:33;101341.47;;;19.67;58.96
50732;BME280;36700;50.488;2.544;2023-07-13T06:40:59;101340.38;;;19.68;58.61
50732;BME280;36700;50.488;2.544;2023-07-13T06:43:25;101346.91;;;19.67;59.12
50732;BME280;36700;50.488;2.544;2023-07-13T06:45:54;101346.69;;;19.68;58.76
50732;BME280;36700;50.488;2.544;2023-07-13T06:48:20;101349.41;;;19.68;59.07
50732;BME280;36700;50.488;2.544;2023-07-13T06:50:48;101350.47;;;19.67;58.97
50732;BME280;36700;50.488;2.544;2023-07-13T06:53:15;101353.19;;;19.67;58.87
50732;BME280;36700;50.488;2.544;2023-07-13T06:55:43;101361.38;;;19.67;58.91
50732;BME280;36700;50.488;2.544;2023-07-13T06:58:10;101354.88;;;19.68;58.67
50732;BME280;36700;50.488;2.544;2023-07-13T07:00:36;101345.84;;;19.68;58.99
50732;BME280;36700;50.488;2.544;2023-07-13T07:03:02;101360.31;;;19.68;59.06
50732;BME280;36700;50.488;2.544;2023-07-13T07:05:28;101355.69;;;19.69;58.87
50732;BME280;36700;50.488;2.544;2023-07-13T07:07:55;101357.31;;;19.70;59.25
50732;BME280;36700;50.488;2.544;2023-07-13T07:10:21;101351.88;;;19.70;59.21
50732;BME280;36700;50.488;2.544;2023-07-13T07:12:47;101351.88;;;19.70;58.92
50732;BME280;36700;50.488;2.544;2023-07-13T07:15:13;101352.72;;;19.70;58.92
50732;BME280;36700;50.488;2.544;2023-07-13T07:17:39;101348.34;;;19.69;59.14
50732;BME280;36700;50.488;2.544;2023-07-13T07:20:05;101351.06;;;19.69;59.05
50732;BME280;36700;50.488;2.544;2023-07-13T07:22:31;101357.09;;;19.71;59.25
50732;BME280;36700;50.488;2.544;2023-07-13T07:24:57;101358.97;;;19.71;58.91
50732;BME280;36700;50.488;2.544;2023-07-13T07:27:24;101357.09;;;19.71;58.99
50732;BME280;36700;50.488;2.544;2023-07-13T07:29:50;101363.38;;;19.72;59.33
50732;BME280;36700;50.488;2.544;2023-07-13T07:32:16;101358.72;;;19.72;59.03
50732;BME280;36700;50.488;2.544;2023-07-13T07:34:42;101366.13;;;19.72;59.28
50732;BME280;36700;50.488;2.544;2023-07-13T07:37:12;101366.91;;;19.72;58.93
50732;BME280;36700;50.488;2.544;2023-07-13T07:39:39;101372.38;;;19.72;59.29
50732;BME280;36700;50.488;2.544;2023-07-13T07:42:05;101371.56;;;19.72;59.12
50732;BME280;36700;50.488;2.544;2023-07-13T07:44:32;101374.03;;;19.73;59.08
50732;BME280;36700;50.488;2.544;2023-07-13T07:46:58;101375.72;;;19.74;59.29
50732;BME280;36700;50.488;2.544;2023-07-13T07:49:24;101378.75;;;19.78;58.89
50732;BME280;36700;50.488;2.544;2023-07-13T07:51:50;101379.34;;;19.80;59.42
50732;BME280;36700;50.488;2.544;2023-07-13T07:54:17;101382.91;;;19.81;59.00
50732;BME280;36700;50.488;2.544;2023-07-13T07:56:43;101381.56;;;19.83;59.05
50732;BME280;36700;50.488;2.544;2023-07-13T07:59:09;101373.03;;;19.80;59.35
50732;BME280;36700;50.488;2.544;2023-07-13T08:01:36;101382.31;;;19.78;59.30
50732;BME280;36700;50.488;2.544;2023-07-13T08:04:01;101385.38;;;19.82;58.97
50732;BME280;36700;50.488;2.544;2023-07-13T08:06:27;101390.81;;;19.82;59.26
50732;BME280;36700;50.488;2.544;2023-07-13T08:08:55;101388.59;;;19.79;59.28
50732;BME280;36700;50.488;2.544;2023-07-13T08:11:22;101393.22;;;19.78;59.39
50732;BME280;36700;50.488;2.544;2023-07-13T08:13:49;101394.06;;;19.79;59.11
50732;BME280;36700;50.488;2.544;2023-07-13T08:16:16;101391.56;;;19.77;59.50
50732;BME280;36700;50.488;2.544;2023-07-13T08:18:42;101397.88;;;19.78;59.12
50732;BME280;36700;50.488;2.544;2023-07-13T08:21:08;101395.94;;;19.78;59.63
50732;BME280;36700;50.488;2.544;2023-07-13T08:23:35;101394.41;;;19.83;59.14
50732;BME280;36700;50.488;2.544;2023-07-13T08:26:02;101397.69;;;19.85;59.12
50732;BME280;36700;50.488;2.544;2023-07-13T08:28:29;101393.97;;;19.91;59.27
50732;BME280;36700;50.488;2.544;2023-07-13T08:30:54;101399.19;;;19.92;59.30
50732;BME280;36700;50.488;2.544;2023-07-13T08:33:22;101389.91;;;19.94;58.90
50732;BME280;36700;50.488;2.544;2023-07-13T08:35:50;101395.50;;;19.99;58.93
50732;BME280;36700;50.488;2.544;2023-07-13T08:38:17;101393.94;;;20.03;58.69
50732;BME280;36700;50.488;2.544;2023-07-13T08:40:44;101391.94;;;19.98;58.74
50732;BME280;36700;50.488;2.544;2023-07-13T08:43:19;101400.38;;;19.97;58.95
50732;BME280;36700;50.488;2.544;2023-07-13T08:45:55;101395.13;;;19.95;58.73
50732;BME280;36700;50.488;2.544;2023-07-13T08:48:26;101404.41;;;19.94;58.78
50732;BME280;36700;50.488;2.544;2023-07-13T08:51:04;101397.03;;;19.95;58.70
50732;BME280;36700;50.488;2.544;2023-07-13T08:53:46;101397.66;;;19.97;58.75
50732;BME280;36700;50.488;2.544;2023-07-13T08:56:19;101406.66;;;19.97;59.23
50732;BME280;36700;50.488;2.544;2023-07-13T08:58:49;101409.88;;;19.94;59.19
50732;BME280;36700;50.488;2.544;2023-07-13T09:01:43;101405.22;;;19.95;59.26
50732;BME280;36700;50.488;2.544;2023-07-13T09:04:16;101405.00;;;19.96;58.89
50732;BME280;36700;50.488;2.544;2023-07-13T09:14:59;101404.34;;;20.06;59.07
50732;BME280;36700;50.488;2.544;2023-07-13T09:17:29;101397.81;;;20.07;58.88
50732;BME280;36700;50.488;2.544;2023-07-13T09:22:50;101413.38;;;20.07;58.68
50732;BME280;36700;50.488;2.544;2023-07-13T09:25:31;101415.50;;;20.04;59.05
50732;BME280;36700;50.488;2.544;2023-07-13T09:28:18;101420.41;;;20.02;58.76
50732;BME280;36700;50.488;2.544;2023-07-13T09:31:00;101420.91;;;19.99;59.17
50732;BME280;36700;50.488;2.544;2023-07-13T09:33:27;101415.44;;;19.99;59.30
50732;BME280;36700;50.488;2.544;2023-07-13T09:35:55;101419.00;;;20.00;59.30
50732;BME280;36700;50.488;2.544;2023-07-13T09:38:25;101426.94;;;20.01;59.33
50732;BME280;36700;50.488;2.544;2023-07-13T09:43:26;101418.84;;;20.07;59.06
50732;BME280;36700;50.488;2.544;2023-07-13T09:45:55;101412.53;;;20.06;58.87
50732;BME280;36700;50.488;2.544;2023-07-13T09:48:21;101417.75;;;20.08;58.76
50732;BME280;36700;50.488;2.544;2023-07-13T09:50:47;101417.75;;;20.08;59.06
50732;BME280;36700;50.488;2.544;2023-07-13T09:53:18;101418.84;;;20.07;59.17
50732;BME280;36700;50.488;2.544;2023-07-13T09:55:46;101416.34;;;20.05;59.23
50732;BME280;36700;50.488;2.544;2023-07-13T09:58:24;101423.13;;;20.02;59.20
50732;BME280;36700;50.488;2.544;2023-07-13T10:03:22;101432.16;;;20.03;59.02
50732;BME280;36700;50.488;2.544;2023-07-13T10:05:50;101432.72;;;20.05;59.27
50732;BME280;36700;50.488;2.544;2023-07-13T10:08:20;101425.94;;;20.08;59.36
50732;BME280;36700;50.488;2.544;2023-07-13T10:10:52;101426.50;;;20.10;59.41
50732;BME280;36700;50.488;2.544;2023-07-13T10:13:25;101425.94;;;20.08;59.19
50732;BME280;36700;50.488;2.544;2023-07-13T10:15:52;101435.22;;;20.07;59.03
50732;BME280;36700;50.488;2.544;2023-07-13T10:18:19;101436.63;;;20.09;59.36
50732;BME280;36700;50.488;2.544;2023-07-13T10:20:46;101433.06;;;20.09;59.11
50732;BME280;36700;50.488;2.544;2023-07-13T10:23:15;101433.06;;;20.09;59.28
50732;BME280;36700;50.488;2.544;2023-07-13T10:25:47;101433.06;;;20.09;59.23
50732;BME280;36700;50.488;2.544;2023-07-13T10:28:28;101436.63;;;20.09;59.26
50732;BME280;36700;50.488;2.544;2023-07-13T10:30:56;101433.63;;;20.11;59.03
50732;BME280;36700;50.488;2.544;2023-07-13T10:33:24;101427.91;;;20.12;59.02
50732;BME280;36700;50.488;2.544;2023-07-13T10:35:54;101428.75;;;20.13;59.03
50732;BME280;36700;50.488;2.544;2023-07-13T10:38:23;101435.03;;;20.13;59.21
50732;BME280;36700;50.488;2.544;2023-07-13T10:43:22;101440.00;;;20.16;59.46
50732;BME280;36700;50.488;2.544;2023-07-13T10:45:50;101433.47;;;20.17;59.34
50732;BME280;36700;50.488;2.544;2023-07-13T10:48:17;101438.94;;;20.17;59.16
50732;BME280;36700;50.488;2.544;2023-07-13T10:50:46;101444.41;;;20.17;59.28
50732;BME280;36700;50.488;2.544;2023-07-13T10:53:28;101442.22;;;20.20;59.06
50732;BME280;36700;50.488;2.544;2023-07-13T10:58:36;101446.66;;;20.21;58.93
50732;BME280;36700;50.488;2.544;2023-07-13T11:01:18;101448.28;;;20.22;59.11
50732;BME280;36700;50.488;2.544;2023-07-13T11:03:50;101452.66;;;20.23;59.24
50732;BME280;36700;50.488;2.544;2023-07-13T11:08:57;101445.56;;;20.22;59.09
50732;BME280;36700;50.488;2.544;2023-07-13T11:18:49;101445.06;;;20.25;58.80
50732;BME280;36700;50.488;2.544;2023-07-13T11:21:19;101443.16;;;20.25;58.37
50732;BME280;36700;50.488;2.544;2023-07-13T11:23:52;101447.53;;;20.26;58.55
50732;BME280;36700;50.488;2.544;2023-07-13T11:29:14;101441.00;;;20.27;58.22
50732;BME280;36700;50.488;2.544;2023-07-13T11:31:56;101439.91;;;20.28;58.12
50732;BME280;36700;50.488;2.544;2023-07-13T11:34:30;101438.88;;;20.29;58.36
50732;BME280;36700;50.488;2.544;2023-07-13T11:36:59;101438.03;;;20.29;58.27
50732;BME280;36700;50.488;2.544;2023-07-13T11:39:28;101433.41;;;20.29;58.25
50732;BME280;36700;50.488;2.544;2023-07-13T11:42:17;101445.13;;;20.30;57.77
50732;BME280;36700;50.488;2.544;2023-07-13T11:44:46;101442.16;;;20.31;58.22
50732;BME280;36700;50.488;2.544;2023-07-13T11:47:21;101441.31;;;20.31;58.43
50732;BME280;36700;50.488;2.544;2023-07-13T11:49:49;101438.34;;;20.33;57.99
50732;BME280;36700;50.488;2.544;2023-07-13T11:52:22;101437.28;;;20.34;57.80
50732;BME280;36700;50.488;2.544;2023-07-13T11:54:51;101426.34;;;20.34;58.24
50732;BME280;36700;50.488;2.544;2023-07-13T11:57:30;101423.59;;;20.34;57.51
50732;BME280;36700;50.488;2.544;2023-07-13T12:00:09;101431.56;;;20.35;57.85
50732;BME280;36700;50.488;2.544;2023-07-13T12:02:40;101435.13;;;20.36;57.39
50732;BME280;36700;50.488;2.544;2023-07-13T12:05:11;101439.75;;;20.35;57.58
50732;BME280;36700;50.488;2.544;2023-07-13T12:07:39;101441.41;;;20.36;57.44
50732;BME280;36700;50.488;2.544;2023-07-13T12:12:36;101425.84;;;20.37;57.60
50732;BME280;36700;50.488;2.544;2023-07-13T12:15:07;101434.06;;;20.37;57.39
50732;BME280;36700;50.488;2.544;2023-07-13T12:17:34;101435.13;;;20.36;57.00
50732;BME280;36700;50.488;2.544;2023-07-13T12:20:03;101414.94;;;20.37;57.30
50732;BME280;36700;50.488;2.544;2023-07-13T12:22:37;101430.00;;;20.39;57.21
50732;BME280;36700;50.488;2.544;2023-07-13T12:25:04;101423.69;;;20.39;57.22
50732;BME280;36700;50.488;2.544;2023-07-13T12:27:30;101423.69;;;20.39;57.16
50732;BME280;36700;50.488;2.544;2023-07-13T12:32:26;101425.34;;;20.40;57.16
50732;BME280;36700;50.488;2.544;2023-07-13T12:34:55;101424.25;;;20.41;56.72
50732;BME280;36700;50.488;2.544;2023-07-13T12:37:22;101428.66;;;20.42;57.04
50732;BME280;36700;50.488;2.544;2023-07-13T12:39:49;101418.56;;;20.42;56.90
50732;BME280;36700;50.488;2.544;2023-07-13T12:42:29;101414.75;;;20.43;56.76
50732;BME280;36700;50.488;2.544;2023-07-13T12:45:01;101427.84;;;20.41;56.67
50732;BME280;36700;50.488;2.544;2023-07-13T12:47:27;101437.91;;;20.41;56.80
50732;BME280;36700;50.488;2.544;2023-07-13T12:49:56;101439.59;;;20.42;56.65
50732;BME280;36700;50.488;2.544;2023-07-13T12:52:31;101426.75;;;20.42;56.77
50732;BME280;36700;50.488;2.544;2023-07-13T12:55:12;101423.22;;;20.42;56.90
50732;BME280;36700;50.488;2.544;2023-07-13T12:57:48;101429.47;;;20.42;56.73
50732;BME280;36700;50.488;2.544;2023-07-13T13:00:32;101422.38;;;20.41;56.92
50732;BME280;36700;50.488;2.544;2023-07-13T13:06:19;101423.44;;;20.40;56.77
50732;BME280;36700;50.488;2.544;2023-07-13T13:08:49;101420.72;;;20.40;56.60
50732;BME280;36700;50.488;2.544;2023-07-13T13:11:16;101433.28;;;20.41;56.74
50732;BME280;36700;50.488;2.544;2023-07-13T13:13:43;101437.91;;;20.41;57.13
50732;BME280;36700;50.488;2.544;2023-07-13T13:16:12;101427.25;;;20.39;56.62
50732;BME280;36700;50.488;2.544;2023-07-13T13:18:40;101435.19;;;20.41;56.97
50732;BME280;36700;50.488;2.544;2023-07-13T13:21:06;101420.72;;;20.40;56.80
50732;BME280;36700;50.488;2.544;2023-07-13T13:23:32;101422.38;;;20.41;56.49
50732;BME280;36700;50.488;2.544;2023-07-13T13:25:58;101430.56;;;20.41;56.27
50732;BME280;36700;50.488;2.544;2023-07-13T13:28:24;101424.25;;;20.41;56.47
50732;BME280;36700;50.488;2.544;2023-07-13T13:30:51;101439.84;;;20.40;56.92
50732;BME280;36700;50.488;2.544;2023-07-13T13:33:18;101433.06;;;20.43;56.71
50732;BME280;36700;50.488;2.544;2023-07-13T13:35:45;101432.22;;;20.42;56.15
50732;BME280;36700;50.488;2.544;2023-07-13T13:38:12;101428.41;;;20.43;56.03
50732;BME280;36700;50.488;2.544;2023-07-13T13:40:41;101422.94;;;20.43;56.31